Time;durP1;ratioP1;P1;durP2;ratioP2;P2;SDS_P1;SDS_P2;PMS_P1;PMS_P2;Temp;Humidity;BMP_temperature;BMP_pressure;BME280_temperature;BME280_humidity;BME280_pressure;Samples;Min_cycle;Max_cycle;Signal;HPM_P1;HPM_P2
2021/03/07 00:01:57;;;;;;;10.95;2.65;;;19.10;99.90;;;;;;4948229;28;20036;-62
2021/03/07 00:04:23;;;;;;;17.00;2.85;;;19.20;99.90;;;;;;4951527;28;20167;-65
2021/03/07 00:06:50;;;;;;;12.95;2.78;;;19.30;99.90;;;;;;4949255;28;20023;-62
2021/03/07 00:09:17;;;;;;;15.60;2.90;;;18.90;99.90;;;;;;4948869;29;20109;-62
2021/03/07 00:11:43;;;;;;;10.23;2.47;;;19.10;99.90;;;;;;4954054;28;20031;-63
2021/03/07 00:14:10;;;;;;;13.88;3.10;;;19.00;99.90;;;;;;4953441;29;20023;-62
2021/03/07 00:16:37;;;;;;;9.38;2.58;;;19.00;99.90;;;;;;4954057;28;20428;-62
2021/03/07 00:19:03;;;;;;;11.30;2.50;;;19.10;99.90;;;;;;4955546;28;20057;-62
2021/03/07 00:21:30;;;;;;;9.85;2.15;;;18.80;99.90;;;;;;4950022;28;20031;-64
2021/03/07 00:23:56;;;;;;;16.00;2.83;;;18.50;99.90;;;;;;4955471;28;20023;-63
2021/03/07 00:26:23;;;;;;;18.33;3.58;;;18.40;99.90;;;;;;4954410;29;20038;-63
2021/03/07 00:28:50;;;;;;;16.17;3.28;;;18.30;99.90;;;;;;4954679;28;20055;-62
2021/03/07 00:31:16;;;;;;;14.55;3.17;;;18.30;99.90;;;;;;4955486;28;20043;-64
2021/03/07 00:33:43;;;;;;;16.30;2.78;;;18.20;99.90;;;;;;4946184;28;20457;-63
2021/03/07 00:36:10;;;;;;;23.85;3.22;;;18.10;99.90;;;;;;4955514;28;20043;-62
2021/03/07 00:38:36;;;;;;;14.57;2.65;;;17.90;99.90;;;;;;4955302;28;20039;-64
2021/03/07 00:41:03;;;;;;;17.17;3.05;;;17.60;99.90;;;;;;4954637;28;20039;-62
2021/03/07 00:43:30;;;;;;;12.07;3.35;;;17.20;99.90;;;;;;4946397;28;20055;-64
2021/03/07 00:45:56;;;;;;;11.93;2.40;;;17.40;99.90;;;;;;4954245;28;20027;-63
2021/03/07 00:48:23;;;;;;;5.57;2.15;;;17.50;99.90;;;;;;4953880;28;20027;-63
2021/03/07 00:50:50;;;;;;;11.52;2.47;;;17.50;99.90;;;;;;4953959;28;20703;-64
2021/03/07 00:53:16;;;;;;;13.45;2.80;;;17.40;99.90;;;;;;4947773;28;20036;-63
2021/03/07 00:55:43;;;;;;;14.65;2.75;;;17.30;99.90;;;;;;4953229;29;20031;-61
2021/03/07 00:58:10;;;;;;;16.75;2.83;;;17.30;99.90;;;;;;4954433;29;20057;-62
2021/03/07 01:00:36;;;;;;;11.68;2.47;;;17.10;99.90;;;;;;4953179;28;20035;-61
2021/03/07 01:03:03;;;;;;;11.93;2.22;;;16.70;99.90;;;;;;4945709;28;20031;-63
2021/03/07 01:05:31;;;;;;;10.60;1.98;;;16.50;99.90;;;;;;4955045;28;20027;-62
2021/03/07 01:07:57;;;;;;;7.97;2.13;;;16.50;99.90;;;;;;4952085;28;20027;-63
2021/03/07 01:10:32;;;;;;;13.73;3.03;;;16.40;99.90;;;;;;4954404;28;20047;-62
2021/03/07 01:12:59;;;;;;;13.85;2.38;;;16.40;99.90;;;;;;4960297;28;20373;-62
2021/03/07 01:15:29;;;;;;;10.43;2.03;;;16.20;99.90;;;;;;4958775;28;20035;-62
2021/03/07 01:17:56;;;;;;;12.60;2.85;;;16.10;99.90;;;;;;4957939;28;20031;-64
2021/03/07 01:20:23;;;;;;;16.15;3.88;;;16.20;99.90;;;;;;4957510;29;20396;-62
2021/03/07 01:22:50;;;;;;;13.70;3.92;;;16.20;99.90;;;;;;4956326;28;20034;-61
2021/03/07 01:25:20;;;;;;;16.67;2.75;;;16.10;99.90;;;;;;4951423;29;20031;-61
2021/03/07 01:27:48;;;;;;;16.92;2.63;;;16.00;99.90;;;;;;4957965;28;20026;-60
2021/03/07 01:30:15;;;;;;;15.77;3.75;;;15.90;99.90;;;;;;4952276;28;20386;-61
2021/03/07 01:32:42;;;;;;;17.17;2.55;;;15.80;99.90;;;;;;4950415;28;20031;-63
2021/03/07 01:35:09;;;;;;;18.35;3.22;;;15.60;99.90;;;;;;4947380;28;20046;-62
2021/03/07 01:37:35;;;;;;;14.77;3.20;;;15.40;99.90;;;;;;4955028;29;20074;-61
2021/03/07 01:40:07;;;;;;;11.73;2.88;;;15.50;99.90;;;;;;4955991;28;20023;-62
2021/03/07 01:42:33;;;;;;;15.60;3.05;;;15.40;99.90;;;;;;4953839;28;20031;-62
2021/03/07 01:45:00;;;;;;;18.20;3.42;;;15.30;99.90;;;;;;4956088;28;20023;-61
2021/03/07 01:47:32;;;;;;;10.52;2.78;;;15.30;99.90;;;;;;4947201;28;20168;-62
2021/03/07 01:49:59;;;;;;;18.70;3.03;;;15.30;99.90;;;;;;4953914;28;20112;-61
2021/03/07 01:52:27;;;;;;;13.68;2.85;;;15.40;99.90;;;;;;4955347;29;20038;-61
2021/03/07 01:54:53;;;;;;;12.82;3.03;;;15.30;99.90;;;;;;4951146;29;20058;-61
2021/03/07 01:57:23;;;;;;;20.25;3.45;;;15.20;99.90;;;;;;4956726;28;20035;-61
2021/03/07 01:59:53;;;;;;;15.52;3.92;;;15.20;99.90;;;;;;4952548;29;20040;-61
2021/03/07 02:02:20;;;;;;;19.92;3.55;;;15.30;99.90;;;;;;4947677;28;20075;-61
2021/03/07 02:04:47;;;;;;;16.95;3.80;;;15.20;99.90;;;;;;4953764;28;20031;-61
2021/03/07 02:07:13;;;;;;;18.27;3.25;;;15.30;99.90;;;;;;4957406;29;20418;-61
2021/03/07 02:09:40;;;;;;;17.20;3.97;;;15.30;99.90;;;;;;4953725;28;20110;-61
2021/03/07 02:12:08;;;;;;;21.38;3.95;;;15.20;99.90;;;;;;4946979;28;20167;-61
2021/03/07 02:14:36;;;;;;;19.67;3.45;;;15.30;99.90;;;;;;4954896;28;20077;-62
2021/03/07 02:17:04;;;;;;;27.10;4.50;;;15.30;99.90;;;;;;4956694;28;20302;-62
2021/03/07 02:19:35;;;;;;;13.77;3.95;;;15.30;99.90;;;;;;4952850;28;20105;-63
2021/03/07 02:22:06;;;;;;;15.00;3.60;;;15.30;99.90;;;;;;4953048;28;20023;-62
2021/03/07 02:24:33;;;;;;;15.82;3.20;;;15.20;99.90;;;;;;4954050;28;20089;-62
2021/03/07 02:27:00;;;;;;;12.90;3.10;;;15.20;99.90;;;;;;4955362;28;20039;-62
2021/03/07 02:29:27;;;;;;;23.13;4.22;;;15.20;99.90;;;;;;4954981;28;20034;-62
2021/03/07 02:32:00;;;;;;;19.13;3.47;;;15.20;99.90;;;;;;4955319;28;20034;-62
2021/03/07 02:34:34;;;;;;;20.23;4.00;;;15.20;99.90;;;;;;4953936;29;20053;-62
2021/03/07 02:37:06;;;;;;;19.05;2.67;;;15.20;99.90;;;;;;4950627;28;20031;-62
2021/03/07 02:39:35;;;;;;;24.45;3.60;;;15.20;99.90;;;;;;4953458;28;20518;-62
2021/03/07 02:42:09;;;;;;;11.73;2.97;;;15.10;99.90;;;;;;4951640;28;20058;-62
2021/03/07 02:44:39;;;;;;;11.02;2.78;;;15.10;99.90;;;;;;4950831;29;20047;-62
2021/03/07 02:47:06;;;;;;;11.73;2.63;;;15.00;99.90;;;;;;4951130;29;20028;-62
2021/03/07 02:49:35;;;;;;;13.88;3.30;;;15.00;99.90;;;;;;4945759;28;20030;-62
2021/03/07 02:52:04;;;;;;;24.45;3.55;;;15.10;99.90;;;;;;4953109;28;20027;-63
2021/03/07 02:54:34;;;;;;;20.00;4.38;;;15.00;99.90;;;;;;4954427;28;20405;-62
2021/03/07 02:57:03;;;;;;;21.27;3.67;;;15.10;99.90;;;;;;4947556;28;20415;-62
2021/03/07 02:59:30;;;;;;;;;;;15.10;99.90;;;;;;4960288;28;20113;-62
2021/03/07 03:02:00;;;;;;;25.23;4.88;;;15.10;99.90;;;;;;4955339;28;20062;-62
2021/03/07 03:04:29;;;;;;;16.65;3.38;;;15.10;99.90;;;;;;4950392;28;20154;-62
2021/03/07 03:06:57;;;;;;;26.98;3.58;;;15.10;99.90;;;;;;4953516;29;20210;-62
2021/03/07 03:09:26;;;;;;;17.98;3.08;;;15.00;99.90;;;;;;4955720;28;20023;-61
2021/03/07 03:11:57;;;;;;;20.58;3.97;;;15.00;99.90;;;;;;4959657;28;20030;-62
2021/03/07 03:14:24;;;;;;;14.88;2.72;;;14.90;99.90;;;;;;4955643;28;20472;-61
2021/03/07 03:16:55;;;;;;;13.63;2.58;;;14.90;99.90;;;;;;4955905;28;20099;-61
2021/03/07 03:19:27;;;;;;;16.00;2.80;;;15.00;99.90;;;;;;4955770;28;20058;-61
2021/03/07 03:21:55;;;;;;;17.55;3.80;;;15.00;99.90;;;;;;4950881;29;20423;-61
2021/03/07 03:24:22;;;;;;;15.60;3.65;;;15.00;99.90;;;;;;4955526;28;20090;-61
2021/03/07 03:26:49;;;;;;;15.73;4.65;;;15.00;99.90;;;;;;4952984;28;20092;-61
2021/03/07 03:29:16;;;;;;;22.88;3.45;;;15.00;99.90;;;;;;4952968;28;20035;-61
2021/03/07 03:31:43;;;;;;;17.25;3.85;;;15.00;99.90;;;;;;4951147;29;20023;-61
2021/03/07 03:34:09;;;;;;;22.60;3.33;;;15.00;99.90;;;;;;4953394;28;20114;-61
2021/03/07 03:36:38;;;;;;;18.58;4.32;;;15.10;99.90;;;;;;4953145;29;20046;-62
2021/03/07 03:39:12;;;;;;;17.15;4.18;;;15.10;99.90;;;;;;4952758;28;20129;-62
2021/03/07 03:41:39;;;;;;;28.10;4.40;;;15.10;99.90;;;;;;4952977;28;20078;-62
2021/03/07 03:44:12;;;;;;;26.35;3.88;;;15.10;99.90;;;;;;4950050;28;20046;-62
2021/03/07 03:46:41;;;;;;;24.38;4.93;;;15.10;99.90;;;;;;4952730;28;20023;-62
2021/03/07 03:49:44;;;;;;;32.00;5.47;;;15.10;99.90;;;;;;4952681;28;20038;-62
2021/03/07 03:52:13;;;;;;;30.15;4.45;;;15.10;99.90;;;;;;4952579;28;20035;-61
2021/03/07 03:55:10;;;;;;;30.35;5.28;;;15.00;99.90;;;;;;4953894;28;20035;-61
2021/03/07 03:57:38;;;;;;;32.70;4.25;;;14.90;99.90;;;;;;4938041;29;20504;-61
2021/03/07 04:00:08;;;;;;;18.98;3.60;;;15.00;99.90;;;;;;4951955;29;20066;-62
2021/03/07 04:02:37;;;;;;;27.60;4.50;;;15.00;99.90;;;;;;4954516;28;20023;-61
2021/03/07 04:05:07;;;;;;;29.05;4.60;;;15.00;99.90;;;;;;4953968;29;20027;-61
2021/03/07 04:07:35;;;;;;;32.72;5.43;;;15.00;99.90;;;;;;4952978;28;20422;-61
2021/03/07 04:10:03;;;;;;;18.77;3.72;;;14.90;99.90;;;;;;4952579;29;20031;-62
2021/03/07 04:12:30;;;;;;;17.08;3.03;;;15.00;99.90;;;;;;4954688;28;20078;-62
2021/03/07 04:14:58;;;;;;;22.98;4.55;;;14.90;99.90;;;;;;4954396;28;20042;-62
2021/03/07 04:17:26;;;;;;;24.17;5.63;;;14.80;99.90;;;;;;4955030;28;20102;-61
2021/03/07 04:19:54;;;;;;;28.23;4.97;;;14.70;99.90;;;;;;4952531;28;20023;-62
2021/03/07 04:22:22;;;;;;;19.88;3.60;;;14.80;99.90;;;;;;4951211;28;20159;-62
2021/03/07 04:24:49;;;;;;;24.33;4.17;;;14.70;99.90;;;;;;4952612;28;20050;-62
2021/03/07 04:27:17;;;;;;;25.60;4.10;;;14.60;99.90;;;;;;4954224;28;20086;-62
2021/03/07 04:29:44;;;;;;;20.55;3.97;;;14.60;99.90;;;;;;4952797;28;20425;-62
2021/03/07 04:32:11;;;;;;;28.42;5.30;;;14.60;99.90;;;;;;4954983;29;20587;-62
2021/03/07 04:34:39;;;;;;;25.63;4.40;;;14.60;99.90;;;;;;4954886;28;20115;-62
2021/03/07 04:37:06;;;;;;;28.25;4.80;;;14.70;99.90;;;;;;4953856;29;20057;-62
2021/03/07 04:39:33;;;;;;;20.13;3.35;;;14.60;99.90;;;;;;4952698;28;20066;-62
2021/03/07 04:42:00;;;;;;;18.13;3.65;;;14.60;99.90;;;;;;4954675;28;20067;-62
2021/03/07 04:44:27;;;;;;;29.02;4.32;;;14.60;99.90;;;;;;4952635;28;20050;-62
2021/03/07 04:46:53;;;;;;;16.65;3.53;;;14.60;99.90;;;;;;4957333;28;20030;-62
2021/03/07 04:49:20;;;;;;;21.13;4.90;;;14.70;99.90;;;;;;4955532;28;20054;-62
2021/03/07 04:51:47;;;;;;;32.53;5.53;;;14.70;99.90;;;;;;4957399;28;20133;-62
2021/03/07 04:54:13;;;;;;;14.13;3.35;;;14.70;99.90;;;;;;4958050;29;20027;-62
2021/03/07 04:56:40;;;;;;;23.20;4.60;;;14.80;99.90;;;;;;4958288;29;20066;-63
2021/03/07 04:59:07;;;;;;;20.00;3.47;;;14.80;99.90;;;;;;4957529;28;20023;-62
2021/03/07 05:01:35;;;;;;;24.98;4.20;;;14.70;99.90;;;;;;4958555;29;20027;-62
2021/03/07 05:04:03;;;;;;;25.45;3.40;;;14.70;99.90;;;;;;4958700;28;20394;-61
2021/03/07 05:06:29;;;;;;;25.27;4.78;;;14.60;99.90;;;;;;4957783;29;20035;-62
2021/03/07 05:08:56;;;;;;;16.35;3.35;;;14.70;99.90;;;;;;4957722;28;20023;-61
2021/03/07 05:11:23;;;;;;;26.35;3.95;;;14.70;99.90;;;;;;4958434;28;20042;-61
2021/03/07 05:13:49;;;;;;;20.27;3.80;;;14.50;99.90;;;;;;4955865;28;20034;-61
2021/03/07 05:16:20;;;;;;;14.25;3.78;;;14.50;99.90;;;;;;4954879;29;20064;-62
2021/03/07 05:18:48;;;;;;;18.10;3.08;;;14.40;99.90;;;;;;4946621;29;20127;-62
2021/03/07 05:21:14;;;;;;;16.40;3.53;;;14.40;99.90;;;;;;4951818;29;20395;-61
2021/03/07 05:23:42;;;;;;;16.40;3.95;;;14.30;99.90;;;;;;4958244;28;20059;-62
2021/03/07 05:26:08;;;;;;;16.55;3.03;;;14.30;99.90;;;;;;4958514;28;20306;-63
2021/03/07 05:28:35;;;;;;;9.63;2.50;;;14.40;99.90;;;;;;4957897;29;20079;-61
2021/03/07 05:31:03;;;;;;;14.70;3.38;;;14.40;99.90;;;;;;4957492;28;20097;-61
2021/03/07 05:33:31;;;;;;;22.02;3.28;;;14.40;99.90;;;;;;4956290;28;20449;-62
2021/03/07 05:35:57;;;;;;;14.25;2.72;;;14.40;99.90;;;;;;4956990;29;20039;-62
2021/03/07 05:38:24;;;;;;;15.70;2.63;;;14.40;99.90;;;;;;4956511;28;20031;-62
2021/03/07 05:40:51;;;;;;;22.85;3.97;;;14.50;99.90;;;;;;4957094;28;20035;-61
2021/03/07 05:43:18;;;;;;;20.52;3.55;;;14.50;99.90;;;;;;4957391;28;20553;-61
2021/03/07 05:45:48;;;;;;;20.38;2.78;;;14.50;99.90;;;;;;4957848;28;20062;-62
2021/03/07 05:48:15;;;;;;;26.13;4.22;;;14.50;99.90;;;;;;4953983;29;20043;-62
2021/03/07 05:50:42;;;;;;;13.88;3.15;;;14.40;99.90;;;;;;4954424;29;20146;-62
2021/03/07 05:53:11;;;;;;;23.45;3.15;;;14.40;99.90;;;;;;4957207;29;20305;-62
2021/03/07 05:55:38;;;;;;;11.50;3.00;;;14.40;99.90;;;;;;4956136;28;20031;-61
2021/03/07 05:58:05;;;;;;;16.00;2.78;;;14.30;99.90;;;;;;4956093;28;20118;-61
2021/03/07 06:00:32;;;;;;;18.88;3.70;;;14.40;99.90;;;;;;4954427;28;20019;-61
2021/03/07 06:02:59;;;;;;;13.68;2.58;;;14.30;99.90;;;;;;4955422;28;20094;-61
2021/03/07 06:05:26;;;;;;;20.35;2.50;;;14.20;99.90;;;;;;4956879;29;20054;-61
2021/03/07 06:07:52;;;;;;;9.90;2.28;;;14.20;99.90;;;;;;4955997;28;20086;-61
2021/03/07 06:10:28;;;;;;;10.80;2.85;;;14.20;99.90;;;;;;4954616;29;20093;-61
2021/03/07 06:13:01;;;;;;;17.20;2.53;;;14.20;99.90;;;;;;4953990;28;20576;-62
2021/03/07 06:15:29;;;;;;;14.63;2.85;;;14.20;99.90;;;;;;4956482;28;20160;-61
2021/03/07 06:17:56;;;;;;;14.07;2.88;;;14.10;99.90;;;;;;4957135;28;20035;-61
2021/03/07 06:20:24;;;;;;;24.75;3.45;;;14.20;99.90;;;;;;4955424;28;20041;-61
2021/03/07 06:23:04;;;;;;;15.98;2.53;;;14.20;99.90;;;;;;4947796;28;20031;-61
2021/03/07 06:25:31;;;;;;;23.63;2.70;;;14.10;99.90;;;;;;4953564;29;20046;-61
2021/03/07 06:27:59;;;;;;;25.83;2.60;;;14.20;99.90;;;;;;4956733;28;20035;-61
2021/03/07 06:30:32;;;;;;;16.25;2.65;;;14.10;99.90;;;;;;4955679;29;20110;-62
2021/03/07 06:33:00;;;;;;;18.65;3.42;;;14.00;99.90;;;;;;4954578;29;20073;-62
2021/03/07 06:35:33;;;;;;;28.55;5.15;;;14.00;99.90;;;;;;4956637;28;20039;-62
2021/03/07 06:38:08;;;;;;;16.10;4.32;;;14.00;99.90;;;;;;4953518;28;20405;-62
2021/03/07 06:40:46;;;;;;;18.38;3.08;;;14.00;99.90;;;;;;4955841;28;20047;-62
2021/03/07 06:43:20;;;;;;;13.90;2.72;;;14.00;99.90;;;;;;4954076;29;20131;-62
2021/03/07 06:45:47;;;;;;;22.55;3.13;;;14.00;99.90;;;;;;4954024;28;20038;-62
2021/03/07 06:48:14;;;;;;;17.75;4.13;;;14.00;99.90;;;;;;4955655;28;20023;-62
2021/03/07 06:50:56;;;;;;;22.02;4.00;;;14.00;99.90;;;;;;4953814;28;20027;-62
2021/03/07 06:53:33;;;;;;;37.85;4.25;;;14.00;99.90;;;;;;4953133;29;20038;-62
2021/03/07 06:55:59;;;;;;;10.80;2.33;;;14.00;99.90;;;;;;4955672;28;20131;-62
2021/03/07 06:58:26;;;;;;;12.13;2.00;;;14.10;99.90;;;;;;4955667;28;20110;-61
2021/03/07 07:00:53;;;;;;;14.43;2.80;;;14.00;99.90;;;;;;4956944;28;20047;-61
2021/03/07 07:03:20;;;;;;;17.65;2.58;;;14.00;99.90;;;;;;4953034;29;20024;-62
2021/03/07 07:05:51;;;;;;;16.10;3.30;;;14.00;99.90;;;;;;4956870;28;20031;-62
2021/03/07 07:08:45;;;;;;;14.15;2.38;;;14.00;99.90;;;;;;4951101;28;20065;-62
2021/03/07 07:11:12;;;;;;;23.10;2.55;;;14.00;99.90;;;;;;4944753;29;20338;-63
2021/03/07 07:13:44;;;;;;;35.78;3.35;;;14.00;99.90;;;;;;4953307;28;20034;-62
2021/03/07 07:16:12;;;;;;;11.52;1.85;;;14.00;99.90;;;;;;4952146;29;20050;-62
2021/03/07 07:18:41;;;;;;;10.77;1.88;;;14.00;99.90;;;;;;4953337;29;20711;-62
2021/03/07 07:21:09;;;;;;;;;;;14.00;99.90;;;;;;4951797;29;20393;-62
2021/03/07 07:23:36;;;;;;;14.48;1.88;;;14.00;99.90;;;;;;4952143;29;20057;-63
2021/03/07 07:26:04;;;;;;;21.02;2.75;;;13.90;99.90;;;;;;4955358;28;20019;-61
2021/03/07 07:28:32;;;;;;;18.20;2.45;;;13.80;99.90;;;;;;4956176;28;20045;-61
2021/03/07 07:31:23;;;;;;;14.18;2.13;;;13.80;99.90;;;;;;4947772;28;20115;-62
2021/03/07 07:34:10;;;;;;;12.65;2.42;;;13.90;99.90;;;;;;4953324;29;20035;-61
2021/03/07 07:36:51;;;;;;;16.52;2.17;;;13.90;99.90;;;;;;4952428;28;20106;-62
2021/03/07 07:39:31;;;;;;;10.60;2.50;;;13.80;99.90;;;;;;4955352;28;20310;-61
2021/03/07 07:41:59;;;;;;;20.52;2.53;;;13.80;99.90;;;;;;4949442;29;20323;-61
2021/03/07 07:44:33;;;;;;;17.02;2.88;;;13.70;99.90;;;;;;4950520;28;20090;-62
2021/03/07 07:47:04;;;;;;;15.25;2.88;;;13.60;99.90;;;;;;4942913;29;20031;-62
2021/03/07 07:49:54;;;;;;;17.63;2.80;;;13.70;99.90;;;;;;4954929;28;20055;-62
2021/03/07 07:52:26;;;;;;;12.88;2.10;;;13.90;99.90;;;;;;4956322;28;20087;-62
2021/03/07 07:55:00;;;;;;;19.15;2.80;;;14.00;99.90;;;;;;4955090;28;20031;-62
2021/03/07 07:57:36;;;;;;;16.48;3.03;;;14.00;99.90;;;;;;4955098;28;20084;-62
2021/03/07 08:00:09;;;;;;;15.40;3.55;;;14.10;99.90;;;;;;4955024;28;20026;-62
2021/03/07 08:02:45;;;;;;;12.30;2.50;;;14.10;99.90;;;;;;4948129;28;20031;-62
2021/03/07 08:05:26;;;;;;;13.90;1.95;;;14.10;99.90;;;;;;4954461;28;20070;-62
2021/03/07 08:08:04;;;;;;;16.08;3.28;;;14.10;99.90;;;;;;4955493;28;20031;-62
2021/03/07 08:10:41;;;;;;;10.18;2.97;;;14.10;99.90;;;;;;4954932;28;20171;-62
2021/03/07 08:13:26;;;;;;;11.73;2.17;;;14.10;99.90;;;;;;4954631;28;20045;-62
2021/03/07 08:15:53;;;;;;;16.90;2.75;;;14.10;99.90;;;;;;4952924;28;20028;-62
2021/03/07 08:18:22;;;;;;;10.73;2.20;;;14.20;99.90;;;;;;4955381;28;20113;-62
2021/03/07 08:20:48;;;;;;;15.88;2.55;;;14.20;99.90;;;;;;4952553;28;20038;-62
2021/03/07 08:23:22;;;;;;;15.95;3.30;;;14.20;99.90;;;;;;4952069;28;20035;-62
2021/03/07 08:25:52;;;;;;;19.95;2.28;;;14.20;99.90;;;;;;4938528;29;20028;-62
2021/03/07 08:28:28;;;;;;;15.23;2.40;;;14.20;99.90;;;;;;4951343;29;20030;-62
2021/03/07 08:30:55;;;;;;;25.23;3.03;;;14.20;99.90;;;;;;4945122;29;20067;-62
2021/03/07 08:33:30;;;;;;;18.33;2.75;;;14.20;99.90;;;;;;4953902;28;20137;-62
2021/03/07 08:36:17;;;;;;;22.27;3.08;;;14.20;99.90;;;;;;4949797;29;20441;-62
2021/03/07 08:38:52;;;;;;;10.35;2.22;;;14.10;99.90;;;;;;4952146;29;20155;-62
2021/03/07 08:41:24;;;;;;;24.50;2.38;;;14.10;99.90;;;;;;4951472;29;20145;-62
2021/03/07 08:43:58;;;;;;;25.70;3.15;;;13.80;99.90;;;;;;4952209;28;20031;-62
2021/03/07 08:46:44;;;;;;;10.02;2.63;;;13.70;99.90;;;;;;4950476;29;20038;-62
2021/03/07 08:49:25;;;;;;;11.13;2.40;;;13.70;99.90;;;;;;4953896;28;20043;-62
2021/03/07 08:51:58;;;;;;;10.95;1.85;;;13.60;99.90;;;;;;4954041;28;20405;-62
2021/03/07 08:54:28;;;;;;;12.55;2.28;;;13.70;99.90;;;;;;4954987;28;20027;-62
2021/03/07 08:56:55;;;;;;;13.98;2.88;;;13.70;99.90;;;;;;4948378;28;20043;-62
2021/03/07 08:59:27;;;;;;;19.65;2.38;;;13.80;99.90;;;;;;4951578;29;20113;-62
2021/03/07 09:01:55;;;;;;;13.70;1.98;;;13.80;99.90;;;;;;4954618;28;20664;-62
2021/03/07 09:04:22;;;;;;;12.35;3.03;;;13.80;99.90;;;;;;4955100;28;20406;-62
2021/03/07 09:06:49;;;;;;;13.45;2.47;;;13.60;99.90;;;;;;4953821;28;20019;-62
2021/03/07 09:09:19;;;;;;;15.45;2.55;;;13.60;99.90;;;;;;4955392;28;20467;-62
2021/03/07 09:12:06;;;;;;;13.43;2.67;;;13.60;99.90;;;;;;4947186;28;20034;-62
2021/03/07 09:14:39;;;;;;;17.35;3.60;;;13.30;99.90;;;;;;4963363;28;20109;-61
2021/03/07 09:17:23;;;;;;;11.30;2.28;;;13.10;99.90;;;;;;4945132;28;20031;-61
2021/03/07 09:19:50;;;;;;;13.73;2.63;;;13.00;99.90;;;;;;4951883;29;20051;-61
2021/03/07 09:22:20;;;;;;;12.00;2.13;;;13.10;99.90;;;;;;4944542;29;20396;-62
2021/03/07 09:24:49;;;;;;;11.10;2.55;;;13.10;99.90;;;;;;4941982;28;20042;-62
2021/03/07 09:27:16;;;;;;;14.27;3.63;;;13.30;99.90;;;;;;4954639;28;20074;-62
2021/03/07 09:30:05;;;;;;;13.98;3.22;;;13.10;99.90;;;;;;4954979;28;20114;-62
2021/03/07 09:32:49;;;;;;;16.13;2.00;;;12.90;99.90;;;;;;4951248;28;20027;-62
2021/03/07 09:35:25;;;;;;;12.02;2.35;;;12.70;99.90;;;;;;4957811;28;20054;-61
2021/03/07 09:38:03;;;;;;;13.52;2.50;;;12.60;99.90;;;;;;4946547;29;20050;-61
2021/03/07 09:40:35;;;;;;;14.80;2.85;;;12.60;99.90;;;;;;4947067;28;20114;-61
2021/03/07 09:43:08;;;;;;;8.40;1.88;;;12.60;99.90;;;;;;4953944;28;20063;-62
2021/03/07 09:45:39;;;;;;;7.03;2.47;;;12.70;99.90;;;;;;4956313;28;20027;-62
2021/03/07 09:48:06;;;;;;;9.38;1.98;;;12.40;99.90;;;;;;4951872;28;20062;-62
2021/03/07 09:50:34;;;;;;;14.45;2.08;;;12.30;99.90;;;;;;4955671;29;20109;-62
2021/03/07 09:53:00;;;;;;;13.57;2.55;;;12.20;99.90;;;;;;4954989;28;20035;-61
2021/03/07 09:55:35;;;;;;;14.85;3.00;;;12.10;99.90;;;;;;4949455;28;20036;-62
2021/03/07 09:58:09;;;;;;;15.35;2.70;;;12.10;99.90;;;;;;4949955;28;20031;-62
2021/03/07 10:00:40;;;;;;;19.73;2.42;;;12.10;99.90;;;;;;4955536;28;20023;-60
2021/03/07 10:03:24;;;;;;;16.08;2.03;;;12.00;99.90;;;;;;4945544;28;20086;-60
2021/03/07 10:06:08;;;;;;;13.55;2.55;;;12.10;99.90;;;;;;4954172;28;20038;-62
2021/03/07 10:08:36;;;;;;;17.88;3.47;;;11.90;99.90;;;;;;4945953;28;20028;-61
2021/03/07 10:11:23;;;;;;;6.75;2.20;;;11.70;99.90;;;;;;4957680;28;20107;-62
2021/03/07 10:14:05;;;;;;;10.73;2.25;;;11.50;99.90;;;;;;4950055;29;20039;-61
2021/03/07 10:16:35;;;;;;;27.70;2.97;;;11.40;99.90;;;;;;4946683;28;20027;-61
2021/03/07 10:19:06;;;;;;;7.30;1.95;;;11.40;99.90;;;;;;4956046;28;20036;-61
2021/03/07 10:21:33;;;;;;;20.83;3.25;;;11.40;99.90;;;;;;4954103;28;20030;-62
2021/03/07 10:24:19;;;;;;;26.85;7.13;;;11.40;99.90;;;;;;4956901;28;20031;-62
2021/03/07 10:26:48;;;;;;;10.07;2.28;;;11.40;99.90;;;;;;4957127;28;20382;-62
2021/03/07 10:29:24;;;;;;;;;;;11.40;99.90;;;;;;4954515;28;20118;-62
2021/03/07 10:32:20;;;;;;;10.35;2.00;;;11.40;99.90;;;;;;4946368;29;19921;-62
2021/03/07 10:34:52;;;;;;;13.82;2.38;;;11.40;99.90;;;;;;4957106;29;20026;-61
2021/03/07 10:37:42;;;;;;;12.13;2.53;;;11.50;99.90;;;;;;4950928;28;20035;-62
2021/03/07 10:40:11;;;;;;;16.55;2.63;;;11.30;99.90;;;;;;4952626;28;20130;-61
2021/03/07 10:42:40;;;;;;;15.05;2.95;;;11.10;99.90;;;;;;4955733;28;20685;-62
2021/03/07 10:45:22;;;;;;;11.55;1.77;;;11.00;99.90;;;;;;4940873;29;20046;-61
2021/03/07 10:48:08;;;;;;;7.85;2.30;;;11.00;99.90;;;;;;4955881;28;20054;-61
2021/03/07 10:50:37;;;;;;;11.13;2.80;;;10.90;99.90;;;;;;4953544;29;20039;-62
2021/03/07 10:53:04;;;;;;;14.95;2.67;;;10.90;99.90;;;;;;4949446;28;20119;-61
2021/03/07 10:55:31;;;;;;;8.07;2.15;;;10.80;99.90;;;;;;4953640;29;20031;-62
2021/03/07 10:57:57;;;;;;;17.08;3.72;;;10.80;99.90;;;;;;4956326;28;20142;-61
2021/03/07 11:00:24;;;;;;;15.50;3.08;;;10.80;99.90;;;;;;4955027;28;20031;-61
2021/03/07 11:02:54;;;;;;;14.98;2.97;;;10.90;99.90;;;;;;4946265;29;20031;-61
2021/03/07 11:05:20;;;;;;;;;;;10.80;99.90;;;;;;4946263;29;20039;-61
2021/03/07 11:07:47;;;;;;;15.98;2.72;;;10.80;99.90;;;;;;4943417;29;19918;-61
2021/03/07 11:10:20;;;;;;;10.48;2.25;;;10.70;99.90;;;;;;4943731;28;20031;-62
2021/03/07 11:12:47;;;;;;;16.65;3.38;;;10.60;99.90;;;;;;4942307;29;20023;-62
2021/03/07 11:15:15;;;;;;;16.52;2.88;;;10.50;99.90;;;;;;4943107;29;20363;-62
2021/03/07 11:17:41;;;;;;;12.43;2.53;;;10.50;99.90;;;;;;4942937;28;20031;-62
2021/03/07 11:20:10;;;;;;;14.90;2.58;;;10.50;99.90;;;;;;4942920;29;20031;-62
2021/03/07 11:22:37;;;;;;;;;;;10.60;99.90;;;;;;4942544;29;20031;-62
2021/03/07 11:25:05;;;;;;;23.40;5.53;;;10.70;99.90;;;;;;4942626;29;20022;-62
2021/03/07 11:27:33;;;;;;;15.63;4.25;;;10.60;99.90;;;;;;4940604;28;20059;-62
2021/03/07 11:29:59;;;;;;;23.33;2.92;;;10.50;99.90;;;;;;4941708;28;20035;-62
2021/03/07 11:32:26;;;;;;;20.25;3.70;;;10.40;99.90;;;;;;4943654;29;20073;-62
2021/03/07 11:34:52;;;;;;;21.60;3.25;;;10.40;99.90;;;;;;4943106;29;20450;-62
2021/03/07 11:37:19;;;;;;;16.15;2.72;;;10.40;99.90;;;;;;4941658;29;20043;-62
2021/03/07 11:39:46;;;;;;;16.25;4.03;;;10.60;99.90;;;;;;4943115;28;20039;-63
2021/03/07 11:42:13;;;;;;;18.98;3.65;;;10.50;99.90;;;;;;4942725;29;20035;-62
2021/03/07 11:44:39;;;;;;;16.80;2.75;;;10.50;99.90;;;;;;4942792;28;20042;-62
2021/03/07 11:47:06;;;;;;;12.52;2.35;;;10.40;99.90;;;;;;4941951;28;20027;-62
2021/03/07 11:49:33;;;;;;;15.95;3.10;;;10.30;99.90;;;;;;4943154;29;20043;-61
2021/03/07 11:52:00;;;;;;;27.50;4.35;;;10.30;99.90;;;;;;4942970;29;20066;-62
2021/03/07 11:54:26;;;;;;;21.80;4.75;;;10.30;99.90;;;;;;4941288;28;20115;-62
2021/03/07 11:56:53;;;;;;;21.08;2.78;;;10.30;99.90;;;;;;4941787;29;20046;-62
2021/03/07 11:59:20;;;;;;;21.52;4.75;;;10.30;99.90;;;;;;4943071;29;20038;-61
2021/03/07 12:01:46;;;;;;;24.33;5.10;;;10.20;99.90;;;;;;4942147;29;20534;-62
2021/03/07 12:04:13;;;;;;;19.63;3.58;;;10.20;99.90;;;;;;4942115;29;20349;-62
2021/03/07 12:06:39;;;;;;;18.10;3.95;;;10.20;99.90;;;;;;4942606;29;20102;-62
2021/03/07 12:09:06;;;;;;;18.00;3.42;;;10.10;99.90;;;;;;4942826;29;20110;-62
2021/03/07 12:11:33;;;;;;;26.58;5.45;;;10.20;99.90;;;;;;4941486;28;20031;-62
2021/03/07 12:13:59;;;;;;;20.70;4.10;;;10.40;99.90;;;;;;4942360;28;20031;-62
2021/03/07 12:16:26;;;;;;;15.18;3.13;;;10.40;99.90;;;;;;4942194;29;20043;-62
2021/03/07 12:18:53;;;;;;;25.42;3.55;;;10.40;99.90;;;;;;4942419;29;20035;-62
2021/03/07 12:21:19;;;;;;;13.18;2.97;;;10.50;99.90;;;;;;4941075;29;20031;-62
2021/03/07 12:23:46;;;;;;;14.45;3.65;;;10.40;99.90;;;;;;4943035;29;20822;-62
2021/03/07 12:26:13;;;;;;;13.80;3.50;;;10.40;99.90;;;;;;4942247;29;20035;-62
2021/03/07 12:28:39;;;;;;;21.25;4.20;;;10.40;99.90;;;;;;4941315;29;20051;-62
2021/03/07 12:31:06;;;;;;;12.75;3.33;;;10.50;99.90;;;;;;4941783;28;20104;-62
2021/03/07 12:33:33;;;;;;;12.02;2.92;;;10.50;99.90;;;;;;4941981;29;20039;-62
2021/03/07 12:36:00;;;;;;;23.23;3.50;;;10.50;99.90;;;;;;4943093;29;20072;-62
2021/03/07 12:38:26;;;;;;;18.58;4.68;;;10.50;99.90;;;;;;4941705;29;20035;-62
2021/03/07 12:40:53;;;;;;;22.35;4.10;;;10.50;99.90;;;;;;4941623;29;20050;-62
2021/03/07 12:43:19;;;;;;;14.50;3.28;;;10.60;99.90;;;;;;4942185;29;20030;-62
2021/03/07 12:45:46;;;;;;;19.13;4.05;;;10.60;99.90;;;;;;4942428;29;20372;-62
2021/03/07 12:48:12;;;;;;;23.95;3.75;;;10.60;99.90;;;;;;4941248;28;20035;-65
2021/03/07 12:50:39;;;;;;;31.08;3.70;;;10.70;99.90;;;;;;4941168;28;20027;-62
2021/03/07 12:53:06;;;;;;;14.48;3.75;;;10.80;99.90;;;;;;4941395;28;20031;-62